sensor_id;sensor_type;location;lat;lon;timestamp;P1;durP1;ratioP1;P2;durP2;ratioP2
75230;SDS011;63814;50.118;8.714;2022-10-16T00:01:07;6.60;;;4.90;;
75230;SDS011;63814;50.118;8.714;2022-10-16T00:03:35;7.67;;;4.83;;
75230;SDS011;63814;50.118;8.714;2022-10-16T00:06:02;9.67;;;5.27;;
75230;SDS011;63814;50.118;8.714;2022-10-16T00:08:29;6.27;;;4.87;;
75230;SDS011;63814;50.118;8.714;2022-10-16T00:10:59;5.57;;;5.07;;
75230;SDS011;63814;50.118;8.714;2022-10-16T00:13:27;6.17;;;5.30;;
75230;SDS011;63814;50.118;8.714;2022-10-16T00:15:54;6.27;;;5.10;;
75230;SDS011;63814;50.118;8.714;2022-10-16T00:18:22;6.40;;;4.90;;
75230;SDS011;63814;50.118;8.714;2022-10-16T00:20:50;7.97;;;5.20;;
75230;SDS011;63814;50.118;8.714;2022-10-16T00:23:17;7.63;;;4.90;;
75230;SDS011;63814;50.118;8.714;2022-10-16T00:25:43;5.13;;;4.30;;
75230;SDS011;63814;50.118;8.714;2022-10-16T00:28:10;6.27;;;4.20;;
75230;SDS011;63814;50.118;8.714;2022-10-16T00:30:37;6.77;;;4.90;;
75230;SDS011;63814;50.118;8.714;2022-10-16T00:33:04;5.40;;;4.23;;
75230;SDS011;63814;50.118;8.714;2022-10-16T00:35:30;6.20;;;4.70;;
75230;SDS011;63814;50.118;8.714;2022-10-16T00:37:58;4.50;;;4.10;;
75230;SDS011;63814;50.118;8.714;2022-10-16T00:40:25;5.43;;;4.30;;
75230;SDS011;63814;50.118;8.714;2022-10-16T00:42:53;8.00;;;4.63;;
75230;SDS011;63814;50.118;8.714;2022-10-16T00:45:19;5.00;;;4.23;;
75230;SDS011;63814;50.118;8.714;2022-10-16T00:47:46;7.40;;;4.63;;
75230;SDS011;63814;50.118;8.714;2022-10-16T00:50:16;6.47;;;4.20;;
75230;SDS011;63814;50.118;8.714;2022-10-16T00:52:48;4.83;;;3.57;;
75230;SDS011;63814;50.118;8.714;2022-10-16T00:55:19;6.00;;;3.90;;
75230;SDS011;63814;50.118;8.714;2022-10-16T00:57:45;4.07;;;3.53;;
75230;SDS011;63814;50.118;8.714;2022-10-16T01:00:14;5.67;;;3.30;;
75230;SDS011;63814;50.118;8.714;2022-10-16T01:02:43;6.17;;;3.93;;
75230;SDS011;63814;50.118;8.714;2022-10-16T01:05:09;6.90;;;3.40;;
75230;SDS011;63814;50.118;8.714;2022-10-16T01:07:38;4.67;;;3.40;;
75230;SDS011;63814;50.118;8.714;2022-10-16T01:10:14;7.30;;;3.50;;
75230;SDS011;63814;50.118;8.714;2022-10-16T01:12:51;5.57;;;3.10;;
75230;SDS011;63814;50.118;8.714;2022-10-16T01:15:24;5.50;;;3.07;;
75230;SDS011;63814;50.118;8.714;2022-10-16T01:17:57;4.00;;;2.80;;
75230;SDS011;63814;50.118;8.714;2022-10-16T01:20:30;4.37;;;2.90;;
75230;SDS011;63814;50.118;8.714;2022-10-16T01:23:05;4.93;;;2.90;;
75230;SDS011;63814;50.118;8.714;2022-10-16T01:25:48;3.20;;;2.87;;
75230;SDS011;63814;50.118;8.714;2022-10-16T01:28:29;4.90;;;3.10;;
75230;SDS011;63814;50.118;8.714;2022-10-16T01:31:00;5.60;;;3.07;;
75230;SDS011;63814;50.118;8.714;2022-10-16T01:33:29;3.40;;;3.10;;
75230;SDS011;63814;50.118;8.714;2022-10-16T01:36:01;8.33;;;3.87;;
75230;SDS011;63814;50.118;8.714;2022-10-16T01:38:33;4.97;;;3.30;;
75230;SDS011;63814;50.118;8.714;2022-10-16T01:41:03;6.10;;;3.37;;
75230;SDS011;63814;50.118;8.714;2022-10-16T01:43:37;3.67;;;3.30;;
75230;SDS011;63814;50.118;8.714;2022-10-16T01:46:06;4.67;;;2.60;;
75230;SDS011;63814;50.118;8.714;2022-10-16T01:48:36;4.43;;;3.10;;
75230;SDS011;63814;50.118;8.714;2022-10-16T01:51:04;4.83;;;2.80;;
75230;SDS011;63814;50.118;8.714;2022-10-16T01:53:33;2.77;;;2.50;;
75230;SDS011;63814;50.118;8.714;2022-10-16T01:55:59;3.00;;;2.50;;
75230;SDS011;63814;50.118;8.714;2022-10-16T01:58:29;2.60;;;2.20;;
75230;SDS011;63814;50.118;8.714;2022-10-16T02:01:01;4.43;;;2.43;;
75230;SDS011;63814;50.118;8.714;2022-10-16T02:03:28;4.73;;;2.30;;
75230;SDS011;63814;50.118;8.714;2022-10-16T02:05:55;4.10;;;2.33;;
75230;SDS011;63814;50.118;8.714;2022-10-16T02:08:25;2.10;;;1.90;;
75230;SDS011;63814;50.118;8.714;2022-10-16T02:10:54;5.73;;;2.20;;
75230;SDS011;63814;50.118;8.714;2022-10-16T02:13:21;5.30;;;2.10;;
75230;SDS011;63814;50.118;8.714;2022-10-16T02:15:52;3.07;;;1.93;;
75230;SDS011;63814;50.118;8.714;2022-10-16T02:18:19;2.10;;;1.90;;
75230;SDS011;63814;50.118;8.714;2022-10-16T02:20:48;3.53;;;1.80;;
75230;SDS011;63814;50.118;8.714;2022-10-16T02:23:19;1.93;;;1.80;;
75230;SDS011;63814;50.118;8.714;2022-10-16T02:25:54;2.60;;;1.63;;
75230;SDS011;63814;50.118;8.714;2022-10-16T02:28:24;3.53;;;1.80;;
75230;SDS011;63814;50.118;8.714;2022-10-16T02:30:55;2.37;;;1.70;;
75230;SDS011;63814;50.118;8.714;2022-10-16T02:33:26;7.07;;;2.20;;
75230;SDS011;63814;50.118;8.714;2022-10-16T02:35:55;2.43;;;1.43;;
75230;SDS011;63814;50.118;8.714;2022-10-16T02:38:22;4.33;;;1.70;;
75230;SDS011;63814;50.118;8.714;2022-10-16T02:40:51;3.50;;;1.60;;
75230;SDS011;63814;50.118;8.714;2022-10-16T02:43:18;2.53;;;1.57;;
75230;SDS011;63814;50.118;8.714;2022-10-16T02:45:45;4.20;;;1.50;;
75230;SDS011;63814;50.118;8.714;2022-10-16T02:48:11;3.07;;;1.43;;
75230;SDS011;63814;50.118;8.714;2022-10-16T02:50:39;3.23;;;1.40;;
75230;SDS011;63814;50.118;8.714;2022-10-16T02:53:06;3.13;;;1.40;;
75230;SDS011;63814;50.118;8.714;2022-10-16T02:55:32;3.63;;;1.83;;
75230;SDS011;63814;50.118;8.714;2022-10-16T02:57:59;2.33;;;1.30;;
75230;SDS011;63814;50.118;8.714;2022-10-16T03:00:25;2.30;;;1.40;;
75230;SDS011;63814;50.118;8.714;2022-10-16T03:02:51;2.43;;;1.50;;
75230;SDS011;63814;50.118;8.714;2022-10-16T03:05:18;2.70;;;1.53;;
75230;SDS011;63814;50.118;8.714;2022-10-16T03:07:46;2.53;;;1.60;;
75230;SDS011;63814;50.118;8.714;2022-10-16T03:10:12;2.60;;;1.60;;
75230;SDS011;63814;50.118;8.714;2022-10-16T03:12:39;1.60;;;1.50;;
75230;SDS011;63814;50.118;8.714;2022-10-16T03:15:06;4.70;;;1.80;;
75230;SDS011;63814;50.118;8.714;2022-10-16T03:17:33;4.33;;;1.70;;
75230;SDS011;63814;50.118;8.714;2022-10-16T03:19:59;2.67;;;1.90;;
75230;SDS011;63814;50.118;8.714;2022-10-16T03:22:26;2.73;;;1.83;;
75230;SDS011;63814;50.118;8.714;2022-10-16T03:24:54;3.20;;;1.37;;
75230;SDS011;63814;50.118;8.714;2022-10-16T03:27:20;3.20;;;1.90;;
75230;SDS011;63814;50.118;8.714;2022-10-16T03:29:47;3.53;;;1.77;;
75230;SDS011;63814;50.118;8.714;2022-10-16T03:32:14;2.90;;;1.60;;
75230;SDS011;63814;50.118;8.714;2022-10-16T03:34:40;2.73;;;1.50;;
75230;SDS011;63814;50.118;8.714;2022-10-16T03:37:07;2.63;;;1.60;;
75230;SDS011;63814;50.118;8.714;2022-10-16T03:39:33;2.93;;;1.47;;
75230;SDS011;63814;50.118;8.714;2022-10-16T03:42:01;1.77;;;1.40;;
75230;SDS011;63814;50.118;8.714;2022-10-16T03:44:28;3.13;;;1.40;;
75230;SDS011;63814;50.118;8.714;2022-10-16T03:46:54;1.83;;;1.40;;
75230;SDS011;63814;50.118;8.714;2022-10-16T03:49:21;2.90;;;1.30;;
75230;SDS011;63814;50.118;8.714;2022-10-16T03:51:47;3.10;;;1.50;;
75230;SDS011;63814;50.118;8.714;2022-10-16T03:54:14;2.43;;;1.40;;
75230;SDS011;63814;50.118;8.714;2022-10-16T03:56:40;4.20;;;1.53;;
75230;SDS011;63814;50.118;8.714;2022-10-16T03:59:08;3.83;;;1.63;;
75230;SDS011;63814;50.118;8.714;2022-10-16T04:01:35;2.70;;;1.53;;
75230;SDS011;63814;50.118;8.714;2022-10-16T04:04:01;4.13;;;1.70;;
75230;SDS011;63814;50.118;8.714;2022-10-16T04:06:27;2.93;;;1.40;;
75230;SDS011;63814;50.118;8.714;2022-10-16T04:08:54;1.43;;;1.30;;
75230;SDS011;63814;50.118;8.714;2022-10-16T04:11:21;3.10;;;1.73;;
75230;SDS011;63814;50.118;8.714;2022-10-16T04:13:47;1.93;;;1.30;;
75230;SDS011;63814;50.118;8.714;2022-10-16T04:16:15;3.20;;;1.50;;
75230;SDS011;63814;50.118;8.714;2022-10-16T04:18:42;3.00;;;1.40;;
75230;SDS011;63814;50.118;8.714;2022-10-16T04:21:08;2.60;;;1.70;;
75230;SDS011;63814;50.118;8.714;2022-10-16T04:23:35;2.43;;;1.47;;
75230;SDS011;63814;50.118;8.714;2022-10-16T04:26:01;4.23;;;1.67;;
75230;SDS011;63814;50.118;8.714;2022-10-16T04:28:28;2.43;;;1.70;;
75230;SDS011;63814;50.118;8.714;2022-10-16T04:30:55;8.13;;;2.10;;
75230;SDS011;63814;50.118;8.714;2022-10-16T04:33:22;6.33;;;1.70;;
75230;SDS011;63814;50.118;8.714;2022-10-16T04:35:55;3.67;;;1.70;;
75230;SDS011;63814;50.118;8.714;2022-10-16T04:38:22;5.73;;;1.90;;
75230;SDS011;63814;50.118;8.714;2022-10-16T04:40:49;5.07;;;1.90;;
75230;SDS011;63814;50.118;8.714;2022-10-16T04:43:15;1.73;;;1.60;;
75230;SDS011;63814;50.118;8.714;2022-10-16T04:45:42;2.60;;;1.80;;
75230;SDS011;63814;50.118;8.714;2022-10-16T04:48:08;2.27;;;1.80;;
75230;SDS011;63814;50.118;8.714;2022-10-16T04:50:36;2.63;;;1.70;;
75230;SDS011;63814;50.118;8.714;2022-10-16T04:53:03;2.67;;;1.70;;
75230;SDS011;63814;50.118;8.714;2022-10-16T04:55:29;2.83;;;1.80;;
75230;SDS011;63814;50.118;8.714;2022-10-16T04:57:56;2.07;;;1.70;;
75230;SDS011;63814;50.118;8.714;2022-10-16T05:00:22;2.30;;;1.80;;
75230;SDS011;63814;50.118;8.714;2022-10-16T05:02:49;3.63;;;1.73;;
75230;SDS011;63814;50.118;8.714;2022-10-16T05:05:16;2.70;;;1.63;;
75230;SDS011;63814;50.118;8.714;2022-10-16T05:07:45;2.67;;;2.03;;
75230;SDS011;63814;50.118;8.714;2022-10-16T05:10:12;2.00;;;1.60;;
75230;SDS011;63814;50.118;8.714;2022-10-16T05:12:38;3.70;;;2.00;;
75230;SDS011;63814;50.118;8.714;2022-10-16T05:15:05;5.13;;;1.80;;
75230;SDS011;63814;50.118;8.714;2022-10-16T05:17:32;2.60;;;1.50;;
75230;SDS011;63814;50.118;8.714;2022-10-16T05:19:59;2.43;;;1.83;;
75230;SDS011;63814;50.118;8.714;2022-10-16T05:22:25;4.17;;;1.90;;
75230;SDS011;63814;50.118;8.714;2022-10-16T05:24:53;2.80;;;1.83;;
75230;SDS011;63814;50.118;8.714;2022-10-16T05:27:20;6.90;;;1.90;;
75230;SDS011;63814;50.118;8.714;2022-10-16T05:29:47;3.00;;;1.83;;
75230;SDS011;63814;50.118;8.714;2022-10-16T05:32:14;3.40;;;1.90;;
75230;SDS011;63814;50.118;8.714;2022-10-16T05:34:42;2.10;;;1.60;;
75230;SDS011;63814;50.118;8.714;2022-10-16T05:37:09;3.33;;;2.00;;
75230;SDS011;63814;50.118;8.714;2022-10-16T05:39:36;5.10;;;2.07;;
75230;SDS011;63814;50.118;8.714;2022-10-16T05:42:04;2.17;;;1.90;;
75230;SDS011;63814;50.118;8.714;2022-10-16T05:44:31;3.13;;;2.30;;
75230;SDS011;63814;50.118;8.714;2022-10-16T05:46:58;2.27;;;1.93;;
75230;SDS011;63814;50.118;8.714;2022-10-16T05:49:24;2.80;;;2.50;;
75230;SDS011;63814;50.118;8.714;2022-10-16T05:51:51;3.07;;;2.13;;
75230;SDS011;63814;50.118;8.714;2022-10-16T05:54:17;2.37;;;1.80;;
75230;SDS011;63814;50.118;8.714;2022-10-16T05:56:44;3.70;;;1.90;;
75230;SDS011;63814;50.118;8.714;2022-10-16T05:59:12;3.07;;;1.70;;
75230;SDS011;63814;50.118;8.714;2022-10-16T06:01:39;3.23;;;1.97;;
75230;SDS011;63814;50.118;8.714;2022-10-16T06:04:05;3.93;;;1.97;;
75230;SDS011;63814;50.118;8.714;2022-10-16T06:06:32;4.40;;;2.00;;
75230;SDS011;63814;50.118;8.714;2022-10-16T06:08:58;3.93;;;1.90;;
75230;SDS011;63814;50.118;8.714;2022-10-16T06:11:26;2.30;;;2.03;;
75230;SDS011;63814;50.118;8.714;2022-10-16T06:13:54;4.43;;;2.20;;
75230;SDS011;63814;50.118;8.714;2022-10-16T06:16:23;4.63;;;2.57;;
75230;SDS011;63814;50.118;8.714;2022-10-16T06:18:51;3.20;;;2.10;;
75230;SDS011;63814;50.118;8.714;2022-10-16T06:21:19;3.73;;;2.10;;
75230;SDS011;63814;50.118;8.714;2022-10-16T06:23:47;2.73;;;2.10;;
75230;SDS011;63814;50.118;8.714;2022-10-16T06:26:15;3.07;;;2.37;;
75230;SDS011;63814;50.118;8.714;2022-10-16T06:28:43;2.33;;;1.93;;
75230;SDS011;63814;50.118;8.714;2022-10-16T06:31:11;2.60;;;2.10;;
75230;SDS011;63814;50.118;8.714;2022-10-16T06:33:39;2.53;;;1.90;;
75230;SDS011;63814;50.118;8.714;2022-10-16T06:36:07;6.23;;;2.20;;
75230;SDS011;63814;50.118;8.714;2022-10-16T06:38:34;3.10;;;2.20;;
75230;SDS011;63814;50.118;8.714;2022-10-16T06:41:02;2.30;;;2.10;;
75230;SDS011;63814;50.118;8.714;2022-10-16T06:43:29;3.33;;;3.00;;
75230;SDS011;63814;50.118;8.714;2022-10-16T06:45:57;4.47;;;3.30;;
75230;SDS011;63814;50.118;8.714;2022-10-16T06:48:26;5.83;;;4.40;;
75230;SDS011;63814;50.118;8.714;2022-10-16T06:50:58;5.53;;;4.43;;
75230;SDS011;63814;50.118;8.714;2022-10-16T06:53:25;9.13;;;6.57;;
75230;SDS011;63814;50.118;8.714;2022-10-16T06:55:53;8.07;;;6.73;;
75230;SDS011;63814;50.118;8.714;2022-10-16T06:58:20;9.23;;;6.88;;
75230;SDS011;63814;50.118;8.714;2022-10-16T07:00:47;7.37;;;6.37;;
75230;SDS011;63814;50.118;8.714;2022-10-16T07:03:13;9.80;;;7.07;;
75230;SDS011;63814;50.118;8.714;2022-10-16T07:05:40;7.33;;;6.07;;
75230;SDS011;63814;50.118;8.714;2022-10-16T07:08:09;10.13;;;8.37;;
75230;SDS011;63814;50.118;8.714;2022-10-16T07:10:36;8.83;;;7.93;;
75230;SDS011;63814;50.118;8.714;2022-10-16T07:13:02;10.57;;;6.67;;
75230;SDS011;63814;50.118;8.714;2022-10-16T07:15:29;9.33;;;6.40;;
75230;SDS011;63814;50.118;8.714;2022-10-16T07:17:55;6.93;;;6.23;;
75230;SDS011;63814;50.118;8.714;2022-10-16T07:20:22;9.23;;;6.50;;
75230;SDS011;63814;50.118;8.714;2022-10-16T07:22:48;6.93;;;6.23;;
75230;SDS011;63814;50.118;8.714;2022-10-16T07:25:16;6.60;;;6.00;;
75230;SDS011;63814;50.118;8.714;2022-10-16T07:27:43;7.83;;;5.70;;
75230;SDS011;63814;50.118;8.714;2022-10-16T07:30:10;10.70;;;6.57;;
75230;SDS011;63814;50.118;8.714;2022-10-16T07:32:36;8.00;;;6.30;;
75230;SDS011;63814;50.118;8.714;2022-10-16T07:35:03;9.30;;;5.17;;
75230;SDS011;63814;50.118;8.714;2022-10-16T07:37:30;8.10;;;5.30;;
75230;SDS011;63814;50.118;8.714;2022-10-16T07:39:57;8.43;;;4.70;;
75230;SDS011;63814;50.118;8.714;2022-10-16T07:42:24;5.40;;;4.70;;
75230;SDS011;63814;50.118;8.714;2022-10-16T07:44:51;9.23;;;4.93;;
75230;SDS011;63814;50.118;8.714;2022-10-16T07:47:17;6.13;;;4.70;;
75230;SDS011;63814;50.118;8.714;2022-10-16T07:49:44;7.47;;;4.27;;
75230;SDS011;63814;50.118;8.714;2022-10-16T07:52:10;5.50;;;4.20;;
75230;SDS011;63814;50.118;8.714;2022-10-16T07:54:37;8.90;;;4.30;;
75230;SDS011;63814;50.118;8.714;2022-10-16T07:57:03;7.50;;;4.50;;
75230;SDS011;63814;50.118;8.714;2022-10-16T07:59:31;5.10;;;4.40;;
75230;SDS011;63814;50.118;8.714;2022-10-16T08:01:57;7.13;;;4.47;;
75230;SDS011;63814;50.118;8.714;2022-10-16T08:04:24;12.00;;;4.50;;
75230;SDS011;63814;50.118;8.714;2022-10-16T08:06:50;6.10;;;4.47;;
75230;SDS011;63814;50.118;8.714;2022-10-16T08:09:17;5.63;;;4.20;;
75230;SDS011;63814;50.118;8.714;2022-10-16T08:11:43;8.27;;;3.80;;
75230;SDS011;63814;50.118;8.714;2022-10-16T08:14:10;7.83;;;4.50;;
75230;SDS011;63814;50.118;8.714;2022-10-16T08:16:37;6.13;;;4.60;;
75230;SDS011;63814;50.118;8.714;2022-10-16T08:19:04;5.90;;;4.20;;
75230;SDS011;63814;50.118;8.714;2022-10-16T08:21:30;8.63;;;5.07;;
75230;SDS011;63814;50.118;8.714;2022-10-16T08:23:57;7.97;;;4.60;;
75230;SDS011;63814;50.118;8.714;2022-10-16T08:26:24;7.10;;;4.60;;
75230;SDS011;63814;50.118;8.714;2022-10-16T08:28:52;5.50;;;3.97;;
75230;SDS011;63814;50.118;8.714;2022-10-16T08:31:19;8.10;;;5.20;;
75230;SDS011;63814;50.118;8.714;2022-10-16T08:33:47;7.03;;;5.80;;
75230;SDS011;63814;50.118;8.714;2022-10-16T08:36:15;8.80;;;6.87;;
75230;SDS011;63814;50.118;8.714;2022-10-16T08:38:42;8.90;;;6.40;;
75230;SDS011;63814;50.118;8.714;2022-10-16T08:41:21;9.80;;;8.00;;
75230;SDS011;63814;50.118;8.714;2022-10-16T08:46:51;9.77;;;8.50;;
75230;SDS011;63814;50.118;8.714;2022-10-16T08:49:27;9.47;;;8.47;;
75230;SDS011;63814;50.118;8.714;2022-10-16T08:51:53;9.77;;;8.50;;
75230;SDS011;63814;50.118;8.714;2022-10-16T08:54:23;9.97;;;8.17;;
75230;SDS011;63814;50.118;8.714;2022-10-16T08:56:55;10.60;;;8.70;;
75230;SDS011;63814;50.118;8.714;2022-10-16T08:59:22;9.50;;;8.47;;
75230;SDS011;63814;50.118;8.714;2022-10-16T09:01:49;8.33;;;7.53;;
75230;SDS011;63814;50.118;8.714;2022-10-16T09:07:21;13.40;;;10.13;;
75230;SDS011;63814;50.118;8.714;2022-10-16T09:10:07;11.50;;;10.27;;
75230;SDS011;63814;50.118;8.714;2022-10-16T09:12:43;8.93;;;8.10;;
75230;SDS011;63814;50.118;8.714;2022-10-16T09:15:21;8.90;;;8.00;;
75230;SDS011;63814;50.118;8.714;2022-10-16T09:17:57;9.50;;;7.63;;
75230;SDS011;63814;50.118;8.714;2022-10-16T09:20:32;10.27;;;7.50;;
75230;SDS011;63814;50.118;8.714;2022-10-16T09:23:12;7.53;;;6.83;;
75230;SDS011;63814;50.118;8.714;2022-10-16T09:25:42;7.60;;;6.90;;
75230;SDS011;63814;50.118;8.714;2022-10-16T09:28:10;8.00;;;7.30;;
75230;SDS011;63814;50.118;8.714;2022-10-16T09:30:37;8.37;;;7.07;;
75230;SDS011;63814;50.118;8.714;2022-10-16T09:33:04;9.27;;;8.40;;
75230;SDS011;63814;50.118;8.714;2022-10-16T09:35:35;11.43;;;10.30;;
75230;SDS011;63814;50.118;8.714;2022-10-16T09:38:03;9.27;;;8.37;;
75230;SDS011;63814;50.118;8.714;2022-10-16T09:40:30;8.80;;;8.00;;
75230;SDS011;63814;50.118;8.714;2022-10-16T09:43:01;11.23;;;10.03;;
75230;SDS011;63814;50.118;8.714;2022-10-16T09:45:32;15.50;;;13.90;;
75230;SDS011;63814;50.118;8.714;2022-10-16T09:48:00;17.23;;;15.43;;
75230;SDS011;63814;50.118;8.714;2022-10-16T09:50:37;17.10;;;15.13;;
75230;SDS011;63814;50.118;8.714;2022-10-16T09:53:04;18.67;;;16.77;;
75230;SDS011;63814;50.118;8.714;2022-10-16T09:55:32;16.93;;;15.30;;
75230;SDS011;63814;50.118;8.714;2022-10-16T09:57:58;20.33;;;16.57;;
75230;SDS011;63814;50.118;8.714;2022-10-16T10:00:25;18.50;;;16.53;;
75230;SDS011;63814;50.118;8.714;2022-10-16T10:02:52;16.73;;;15.00;;
75230;SDS011;63814;50.118;8.714;2022-10-16T10:05:21;14.47;;;13.03;;
75230;SDS011;63814;50.118;8.714;2022-10-16T10:07:55;13.20;;;11.80;;
75230;SDS011;63814;50.118;8.714;2022-10-16T10:10:23;11.37;;;10.27;;
75230;SDS011;63814;50.118;8.714;2022-10-16T10:12:51;12.07;;;10.67;;
75230;SDS011;63814;50.118;8.714;2022-10-16T10:15:18;14.37;;;12.20;;
75230;SDS011;63814;50.118;8.714;2022-10-16T10:17:47;12.90;;;10.87;;
75230;SDS011;63814;50.118;8.714;2022-10-16T10:20:21;12.33;;;11.10;;
75230;SDS011;63814;50.118;8.714;2022-10-16T10:22:50;10.73;;;9.30;;
75230;SDS011;63814;50.118;8.714;2022-10-16T10:25:29;9.60;;;8.60;;
75230;SDS011;63814;50.118;8.714;2022-10-16T10:28:24;9.40;;;8.47;;
75230;SDS011;63814;50.118;8.714;2022-10-16T10:31:10;9.70;;;8.70;;
75230;SDS011;63814;50.118;8.714;2022-10-16T10:33:44;8.63;;;7.70;;
75230;SDS011;63814;50.118;8.714;2022-10-16T10:36:19;9.10;;;8.03;;
75230;SDS011;63814;50.118;8.714;2022-10-16T10:38:53;7.83;;;7.13;;
75230;SDS011;63814;50.118;8.714;2022-10-16T10:41:31;7.77;;;6.50;;
75230;SDS011;63814;50.118;8.714;2022-10-16T10:44:16;5.83;;;5.23;;
75230;SDS011;63814;50.118;8.714;2022-10-16T10:46:51;5.77;;;5.13;;
75230;SDS011;63814;50.118;8.714;2022-10-16T10:49:28;5.97;;;4.70;;
75230;SDS011;63814;50.118;8.714;2022-10-16T10:52:09;5.83;;;4.90;;
75230;SDS011;63814;50.118;8.714;2022-10-16T10:54:52;6.65;;;6.05;;
75230;SDS011;63814;50.118;8.714;2022-10-16T10:57:29;7.00;;;6.10;;
75230;SDS011;63814;50.118;8.714;2022-10-16T11:00:03;6.88;;;6.28;;
75230;SDS011;63814;50.118;8.714;2022-10-16T11:02:44;7.38;;;6.47;;
75230;SDS011;63814;50.118;8.714;2022-10-16T11:05:31;7.88;;;7.18;;
75230;SDS011;63814;50.118;8.714;2022-10-16T11:08:06;7.82;;;6.97;;
75230;SDS011;63814;50.118;8.714;2022-10-16T11:10:40;6.03;;;5.30;;
75230;SDS011;63814;50.118;8.714;2022-10-16T11:13:16;7.63;;;5.30;;
75230;SDS011;63814;50.118;8.714;2022-10-16T11:15:50;7.88;;;5.35;;
75230;SDS011;63814;50.118;8.714;2022-10-16T11:18:22;7.95;;;5.13;;
75230;SDS011;63814;50.118;8.714;2022-10-16T11:20:54;5.43;;;4.93;;
75230;SDS011;63814;50.118;8.714;2022-10-16T11:23:25;7.60;;;4.75;;
75230;SDS011;63814;50.118;8.714;2022-10-16T11:25:54;4.78;;;4.30;;
75230;SDS011;63814;50.118;8.714;2022-10-16T11:28:27;6.72;;;4.75;;
75230;SDS011;63814;50.118;8.714;2022-10-16T11:31:00;5.20;;;4.65;;
75230;SDS011;63814;50.118;8.714;2022-10-16T11:33:35;5.28;;;4.78;;
75230;SDS011;63814;50.118;8.714;2022-10-16T11:36:08;6.20;;;4.88;;
75230;SDS011;63814;50.118;8.714;2022-10-16T11:38:38;6.18;;;5.50;;
75230;SDS011;63814;50.118;8.714;2022-10-16T11:41:17;5.20;;;4.70;;
75230;SDS011;63814;50.118;8.714;2022-10-16T11:43:51;5.25;;;4.75;;
75230;SDS011;63814;50.118;8.714;2022-10-16T11:46:24;6.13;;;4.30;;
75230;SDS011;63814;50.118;8.714;2022-10-16T11:48:54;5.45;;;4.40;;
75230;SDS011;63814;50.118;8.714;2022-10-16T11:51:29;5.57;;;4.40;;
75230;SDS011;63814;50.118;8.714;2022-10-16T11:54:01;7.18;;;4.70;;
75230;SDS011;63814;50.118;8.714;2022-10-16T11:56:32;6.82;;;5.10;;
75230;SDS011;63814;50.118;8.714;2022-10-16T11:59:06;6.63;;;4.75;;
75230;SDS011;63814;50.118;8.714;2022-10-16T12:01:42;5.15;;;4.65;;
75230;SDS011;63814;50.118;8.714;2022-10-16T12:04:15;4.03;;;3.72;;
75230;SDS011;63814;50.118;8.714;2022-10-16T12:06:55;4.35;;;3.75;;
75230;SDS011;63814;50.118;8.714;2022-10-16T12:09:26;5.65;;;3.05;;
75230;SDS011;63814;50.118;8.714;2022-10-16T12:11:54;6.00;;;2.95;;
75230;SDS011;63814;50.118;8.714;2022-10-16T12:14:33;5.38;;;2.72;;
75230;SDS011;63814;50.118;8.714;2022-10-16T12:17:02;3.50;;;2.53;;
75230;SDS011;63814;50.118;8.714;2022-10-16T12:19:31;4.90;;;3.60;;
75230;SDS011;63814;50.118;8.714;2022-10-16T12:21:59;4.43;;;2.90;;
75230;SDS011;63814;50.118;8.714;2022-10-16T12:24:31;3.85;;;2.42;;
75230;SDS011;63814;50.118;8.714;2022-10-16T12:27:00;4.10;;;2.30;;
75230;SDS011;63814;50.118;8.714;2022-10-16T12:29:33;5.22;;;1.98;;
75230;SDS011;63814;50.118;8.714;2022-10-16T12:32:03;2.50;;;1.92;;
75230;SDS011;63814;50.118;8.714;2022-10-16T12:34:34;1.85;;;1.60;;
75230;SDS011;63814;50.118;8.714;2022-10-16T12:37:09;1.73;;;1.63;;
75230;SDS011;63814;50.118;8.714;2022-10-16T12:39:38;3.47;;;1.58;;
75230;SDS011;63814;50.118;8.714;2022-10-16T12:42:17;3.08;;;1.52;;
75230;SDS011;63814;50.118;8.714;2022-10-16T12:44:48;3.15;;;1.60;;
75230;SDS011;63814;50.118;8.714;2022-10-16T12:47:19;3.58;;;1.75;;
75230;SDS011;63814;50.118;8.714;2022-10-16T12:49:48;1.90;;;1.42;;
75230;SDS011;63814;50.118;8.714;2022-10-16T12:52:28;2.30;;;1.63;;
75230;SDS011;63814;50.118;8.714;2022-10-16T12:55:01;1.73;;;1.60;;
75230;SDS011;63814;50.118;8.714;2022-10-16T12:57:38;2.72;;;1.67;;
75230;SDS011;63814;50.118;8.714;2022-10-16T13:00:28;1.55;;;1.45;;
75230;SDS011;63814;50.118;8.714;2022-10-16T13:03:11;2.10;;;1.75;;
75230;SDS011;63814;50.118;8.714;2022-10-16T13:05:59;1.73;;;1.60;;
75230;SDS011;63814;50.118;8.714;2022-10-16T13:08:41;2.15;;;1.60;;
75230;SDS011;63814;50.118;8.714;2022-10-16T13:11:23;2.00;;;1.73;;
75230;SDS011;63814;50.118;8.714;2022-10-16T13:14:02;4.15;;;1.80;;
75230;SDS011;63814;50.118;8.714;2022-10-16T13:17:03;2.70;;;1.80;;
75230;SDS011;63814;50.118;8.714;2022-10-16T13:19:38;3.92;;;2.03;;
75230;SDS011;63814;50.118;8.714;2022-10-16T13:22:14;2.38;;;1.95;;
75230;SDS011;63814;50.118;8.714;2022-10-16T13:24:48;2.45;;;2.17;;
75230;SDS011;63814;50.118;8.714;2022-10-16T13:27:27;3.92;;;2.08;;
75230;SDS011;63814;50.118;8.714;2022-10-16T13:30:01;2.25;;;2.00;;
75230;SDS011;63814;50.118;8.714;2022-10-16T13:32:36;2.33;;;2.13;;
75230;SDS011;63814;50.118;8.714;2022-10-16T13:35:03;3.08;;;2.00;;
75230;SDS011;63814;50.118;8.714;2022-10-16T13:37:45;3.17;;;2.33;;
75230;SDS011;63814;50.118;8.714;2022-10-16T13:40:14;2.00;;;1.80;;
75230;SDS011;63814;50.118;8.714;2022-10-16T13:42:45;4.25;;;1.98;;
75230;SDS011;63814;50.118;8.714;2022-10-16T13:45:19;2.30;;;2.03;;
75230;SDS011;63814;50.118;8.714;2022-10-16T13:47:47;2.40;;;2.05;;
75230;SDS011;63814;50.118;8.714;2022-10-16T13:50:15;3.42;;;2.13;;
75230;SDS011;63814;50.118;8.714;2022-10-16T13:52:43;2.95;;;1.70;;
75230;SDS011;63814;50.118;8.714;2022-10-16T13:55:10;2.13;;;1.90;;
75230;SDS011;63814;50.118;8.714;2022-10-16T13:57:37;3.05;;;1.80;;
75230;SDS011;63814;50.118;8.714;2022-10-16T14:00:16;2.15;;;1.95;;
75230;SDS011;63814;50.118;8.714;2022-10-16T14:02:44;3.28;;;2.10;;
75230;SDS011;63814;50.118;8.714;2022-10-16T14:05:12;2.05;;;1.90;;
75230;SDS011;63814;50.118;8.714;2022-10-16T14:07:40;3.33;;;1.95;;
75230;SDS011;63814;50.118;8.714;2022-10-16T14:10:18;2.67;;;1.92;;
75230;SDS011;63814;50.118;8.714;2022-10-16T14:12:53;2.63;;;2.08;;
75230;SDS011;63814;50.118;8.714;2022-10-16T14:15:21;5.50;;;4.40;;
75230;SDS011;63814;50.118;8.714;2022-10-16T14:17:49;8.77;;;7.30;;
75230;SDS011;63814;50.118;8.714;2022-10-16T14:20:20;4.38;;;3.97;;
75230;SDS011;63814;50.118;8.714;2022-10-16T14:22:48;4.53;;;3.28;;
75230;SDS011;63814;50.118;8.714;2022-10-16T14:25:26;7.22;;;2.90;;
75230;SDS011;63814;50.118;8.714;2022-10-16T14:27:58;3.13;;;2.30;;
75230;SDS011;63814;50.118;8.714;2022-10-16T14:30:27;3.08;;;1.90;;
75230;SDS011;63814;50.118;8.714;2022-10-16T14:32:55;2.15;;;1.50;;
75230;SDS011;63814;50.118;8.714;2022-10-16T14:35:26;2.10;;;1.90;;
75230;SDS011;63814;50.118;8.714;2022-10-16T14:37:58;2.92;;;1.70;;
75230;SDS011;63814;50.118;8.714;2022-10-16T14:40:26;2.05;;;1.75;;
75230;SDS011;63814;50.118;8.714;2022-10-16T14:42:55;1.77;;;1.63;;
75230;SDS011;63814;50.118;8.714;2022-10-16T14:45:23;2.03;;;1.88;;
75230;SDS011;63814;50.118;8.714;2022-10-16T14:47:52;2.10;;;1.63;;
75230;SDS011;63814;50.118;8.714;2022-10-16T14:50:21;2.25;;;1.80;;
75230;SDS011;63814;50.118;8.714;2022-10-16T14:52:49;9.15;;;6.60;;
75230;SDS011;63814;50.118;8.714;2022-10-16T14:55:16;6.82;;;6.03;;
75230;SDS011;63814;50.118;8.714;2022-10-16T14:57:43;4.80;;;3.70;;
75230;SDS011;63814;50.118;8.714;2022-10-16T15:00:18;3.47;;;2.50;;
75230;SDS011;63814;50.118;8.714;2022-10-16T15:02:47;2.58;;;2.13;;
75230;SDS011;63814;50.118;8.714;2022-10-16T15:05:15;4.70;;;2.20;;
75230;SDS011;63814;50.118;8.714;2022-10-16T15:07:43;2.78;;;2.10;;